RYR10JC LOWW-LEPA
Flight info
| Callsign | RYR10JC |
|---|---|
| Flight time | N/A |
| Altitude | 36000 |
| Route | RUPET DCT GRZ DCT VAMET DCT BERTA DCT RIFEN/N0437F350 DCT PIDAD DCT TALEP DCT RARQU DCT BALEN UT250 RIXOT |
| Aircraft | A320/M-SDE3FGHIRWY/LB1 |
Departure
| Time | 2026-04-26 12:58 |
|---|---|
| Airport | Vienna International Airport (LOWW) |
Arrival
| Time | N/A |
|---|---|
| Airport | Palma de Mallorca Airport (LEPA) |
| Time | Latitude | Longitude | Altitude | Speed | Heading |
|---|---|---|---|---|---|
| 2026-04-26 12:13 | 48.12087 | 16.55661 | 616 ft | 0 kts | 116° |
| 2026-04-26 12:47 | 48.12087 | 16.55660 | 610 ft | 1 kts | 116° |
| 2026-04-26 12:48 | 48.12099 | 16.55629 | 623 ft | 4 kts | 126° |
| 2026-04-26 12:48 | 48.12117 | 16.55602 | 626 ft | 4 kts | 156° |
| 2026-04-26 12:48 | 48.12136 | 16.55598 | 624 ft | 1 kts | 206° |
| 2026-04-26 12:48 | 48.12137 | 16.55598 | 624 ft | 0 kts | 206° |
| 2026-04-26 12:53 | 48.12134 | 16.55596 | 624 ft | 2 kts | 206° |
| 2026-04-26 12:53 | 48.12082 | 16.55558 | 614 ft | 11 kts | 206° |
| 2026-04-26 12:53 | 48.11987 | 16.55487 | 620 ft | 18 kts | 207° |
| 2026-04-26 12:54 | 48.11881 | 16.55479 | 610 ft | 17 kts | 134° |
| 2026-04-26 12:54 | 48.11834 | 16.55636 | 612 ft | 17 kts | 116° |
| 2026-04-26 12:54 | 48.11775 | 16.55820 | 610 ft | 21 kts | 115° |
| 2026-04-26 12:54 | 48.11709 | 16.56021 | 617 ft | 22 kts | 116° |
| 2026-04-26 12:55 | 48.11664 | 16.56163 | 615 ft | 23 kts | 117° |
| 2026-04-26 12:55 | 48.11579 | 16.56420 | 615 ft | 22 kts | 116° |
| 2026-04-26 12:55 | 48.11538 | 16.56544 | 619 ft | 14 kts | 116° |
| 2026-04-26 12:55 | 48.11493 | 16.56681 | 614 ft | 15 kts | 116° |
| 2026-04-26 12:56 | 48.11445 | 16.56831 | 610 ft | 17 kts | 115° |
| 2026-04-26 12:56 | 48.11392 | 16.56993 | 618 ft | 18 kts | 117° |
| 2026-04-26 12:56 | 48.11336 | 16.57168 | 618 ft | 19 kts | 114° |
| 2026-04-26 12:56 | 48.11241 | 16.57282 | 622 ft | 18 kts | 181° |
| 2026-04-26 12:57 | 48.11134 | 16.57202 | 616 ft | 18 kts | 206° |
| 2026-04-26 12:57 | 48.11051 | 16.57132 | 617 ft | 9 kts | 240° |
| 2026-04-26 12:57 | 48.11060 | 16.57091 | 612 ft | 0 kts | 295° |
| 2026-04-26 12:58 | 48.11228 | 16.56577 | 617 ft | 84 kts | 296° |
| 2026-04-26 12:58 | 48.11561 | 16.55550 | 619 ft | 133 kts | 296° |
| 2026-04-26 12:58 | 48.12091 | 16.53985 | 911 ft | 151 kts | 298° |
| 2026-04-26 12:58 | 48.12332 | 16.52658 | 1455 ft | 153 kts | 270° |
| 2026-04-26 12:59 | 48.11853 | 16.51244 | 2043 ft | 160 kts | 223° |
| 2026-04-26 12:59 | 48.10893 | 16.50291 | 2396 ft | 175 kts | 216° |
| 2026-04-26 12:59 | 48.09816 | 16.49252 | 2586 ft | 197 kts | 217° |
| 2026-04-26 12:59 | 48.08604 | 16.48067 | 2857 ft | 217 kts | 217° |
| 2026-04-26 13:00 | 48.07339 | 16.46732 | 3279 ft | 228 kts | 224° |
| 2026-04-26 13:00 | 48.06058 | 16.45075 | 3644 ft | 252 kts | 226° |
| 2026-04-26 13:00 | 48.04700 | 16.43293 | 4086 ft | 270 kts | 226° |
| 2026-04-26 13:00 | 48.03280 | 16.41434 | 4976 ft | 271 kts | 226° |
| 2026-04-26 13:01 | 48.01859 | 16.39579 | 5890 ft | 271 kts | 227° |
| 2026-04-26 13:01 | 48.00440 | 16.37729 | 6841 ft | 269 kts | 229° |
| 2026-04-26 13:01 | 47.99019 | 16.35879 | 7599 ft | 274 kts | 228° |
| 2026-04-26 13:01 | 47.97570 | 16.33992 | 8187 ft | 278 kts | 228° |
| 2026-04-26 13:02 | 47.96101 | 16.32078 | 8943 ft | 283 kts | 227° |
| 2026-04-26 13:02 | 47.94585 | 16.30167 | 9680 ft | 288 kts | 225° |
| 2026-04-26 13:02 | 47.93009 | 16.28265 | 10276 ft | 298 kts | 224° |
| 2026-04-26 13:02 | 47.91336 | 16.26270 | 10469 ft | 319 kts | 224° |
| 2026-04-26 13:03 | 47.89552 | 16.24155 | 10801 ft | 333 kts | 223° |
| 2026-04-26 13:03 | 47.87716 | 16.21992 | 11392 ft | 338 kts | 223° |
| 2026-04-26 13:03 | 47.85857 | 16.19805 | 12022 ft | 342 kts | 223° |
| 2026-04-26 13:03 | 47.83982 | 16.17592 | 12650 ft | 346 kts | 223° |
| 2026-04-26 13:04 | 47.82083 | 16.15354 | 13288 ft | 350 kts | 222° |
| 2026-04-26 13:04 | 47.79986 | 16.13420 | 13893 ft | 358 kts | 214° |
| 2026-04-26 13:04 | 47.77800 | 16.11591 | 14456 ft | 363 kts | 214° |
| 2026-04-26 13:04 | 47.75580 | 16.09759 | 15002 ft | 366 kts | 213° |
| 2026-04-26 13:05 | 47.73332 | 16.07917 | 15539 ft | 370 kts | 213° |
| 2026-04-26 13:05 | 47.71066 | 16.06062 | 16070 ft | 374 kts | 213° |
| 2026-04-26 13:05 | 47.68773 | 16.04187 | 16594 ft | 378 kts | 213° |
| 2026-04-26 13:05 | 47.66462 | 16.02295 | 17133 ft | 382 kts | 213° |
| 2026-04-26 13:06 | 47.64123 | 16.00378 | 17668 ft | 385 kts | 213° |
| 2026-04-26 13:06 | 47.61766 | 15.98441 | 18209 ft | 389 kts | 213° |
| 2026-04-26 13:06 | 47.59386 | 15.96489 | 18694 ft | 393 kts | 213° |
| 2026-04-26 13:06 | 47.56981 | 15.94522 | 19186 ft | 396 kts | 213° |
| 2026-04-26 13:07 | 47.54561 | 15.92546 | 19785 ft | 397 kts | 213° |
| 2026-04-26 13:07 | 47.52135 | 15.90567 | 20357 ft | 399 kts | 212° |
| 2026-04-26 13:07 | 47.49700 | 15.88581 | 20907 ft | 401 kts | 212° |
| 2026-04-26 13:07 | 47.47253 | 15.86586 | 21451 ft | 403 kts | 213° |
| 2026-04-26 13:08 | 47.44792 | 15.84584 | 21929 ft | 405 kts | 212° |
| 2026-04-26 13:08 | 47.42317 | 15.82571 | 22432 ft | 407 kts | 212° |
| 2026-04-26 13:08 | 47.39826 | 15.80548 | 22937 ft | 409 kts | 212° |
| 2026-04-26 13:08 | 47.37325 | 15.78522 | 23413 ft | 412 kts | 212° |
| 2026-04-26 13:09 | 47.34802 | 15.76481 | 23889 ft | 414 kts | 212° |
| 2026-04-26 13:09 | 47.32252 | 15.74416 | 24222 ft | 418 kts | 212° |
| 2026-04-26 13:09 | 47.29715 | 15.72363 | 24612 ft | 420 kts | 212° |
| 2026-04-26 13:09 | 47.27149 | 15.70292 | 24998 ft | 421 kts | 212° |
| 2026-04-26 13:10 | 47.24575 | 15.68216 | 25391 ft | 422 kts | 212° |
| 2026-04-26 13:10 | 47.21995 | 15.66137 | 25763 ft | 424 kts | 212° |
| 2026-04-26 13:10 | 47.19401 | 15.64050 | 26156 ft | 425 kts | 212° |
| 2026-04-26 13:10 | 47.16769 | 15.61936 | 26537 ft | 426 kts | 212° |
| 2026-04-26 13:11 | 47.14158 | 15.59842 | 26897 ft | 427 kts | 211° |
| 2026-04-26 13:11 | 47.11551 | 15.57752 | 27304 ft | 427 kts | 211° |
| 2026-04-26 13:11 | 47.08937 | 15.55659 | 27693 ft | 429 kts | 211° |
| 2026-04-26 13:11 | 47.06315 | 15.53561 | 28056 ft | 430 kts | 211° |
| 2026-04-26 13:12 | 47.03685 | 15.51458 | 28425 ft | 431 kts | 211° |
| 2026-04-26 13:12 | 47.01051 | 15.49354 | 28787 ft | 432 kts | 211° |
| 2026-04-26 13:12 | 46.98402 | 15.47239 | 29148 ft | 434 kts | 211° |
| 2026-04-26 13:12 | 46.95750 | 15.45120 | 29475 ft | 435 kts | 211° |
| 2026-04-26 13:13 | 46.93084 | 15.43005 | 29828 ft | 436 kts | 210° |
| 2026-04-26 13:13 | 46.90412 | 15.40906 | 30303 ft | 434 kts | 210° |
| 2026-04-26 13:13 | 46.87754 | 15.38832 | 30719 ft | 433 kts | 210° |
| 2026-04-26 13:13 | 46.85099 | 15.36770 | 31095 ft | 432 kts | 210° |
| 2026-04-26 13:14 | 46.82447 | 15.34710 | 31480 ft | 431 kts | 210° |
| 2026-04-26 13:14 | 46.79845 | 15.32564 | 31869 ft | 429 kts | 216° |
| 2026-04-26 13:14 | 46.77506 | 15.29903 | 32240 ft | 425 kts | 225° |
| 2026-04-26 13:14 | 46.75510 | 15.26728 | 32573 ft | 423 kts | 235° |
| 2026-04-26 13:15 | 46.73834 | 15.23214 | 32930 ft | 422 kts | 238° |
| 2026-04-26 13:15 | 46.72182 | 15.19671 | 33300 ft | 422 kts | 238° |
| 2026-04-26 13:15 | 46.70529 | 15.16155 | 33672 ft | 421 kts | 237° |
| 2026-04-26 13:15 | 46.69430 | 15.13831 | 33938 ft | 420 kts | 237° |
| 2026-04-26 13:16 | 46.67215 | 15.09157 | 34394 ft | 419 kts | 237° |
| 2026-04-26 13:16 | 46.65565 | 15.05678 | 34692 ft | 418 kts | 237° |
| 2026-04-26 13:16 | 46.63915 | 15.02206 | 34988 ft | 417 kts | 237° |
| 2026-04-26 13:16 | 46.62267 | 14.98738 | 35284 ft | 416 kts | 237° |
| 2026-04-26 13:17 | 46.58985 | 14.91829 | 35813 ft | 415 kts | 237° |
| 2026-04-26 13:17 | 46.57322 | 14.88334 | 36033 ft | 415 kts | 238° |
| 2026-04-26 13:18 | 46.52341 | 14.77901 | 36103 ft | 421 kts | 237° |
| 2026-04-26 13:19 | 46.47323 | 14.67407 | 36102 ft | 422 kts | 237° |
| 2026-04-26 13:19 | 46.43942 | 14.60514 | 36080 ft | 422 kts | 235° |
| 2026-04-26 13:20 | 46.40237 | 14.53873 | 36090 ft | 424 kts | 232° |
| 2026-04-26 13:20 | 46.36405 | 14.47381 | 36091 ft | 424 kts | 232° |
| 2026-04-26 13:21 | 46.32600 | 14.40852 | 36089 ft | 424 kts | 233° |
| 2026-04-26 13:21 | 46.28820 | 14.34233 | 36091 ft | 424 kts | 233° |
| 2026-04-26 13:22 | 46.25064 | 14.27661 | 36085 ft | 424 kts | 233° |
| 2026-04-26 13:22 | 46.21287 | 14.21100 | 36091 ft | 425 kts | 233° |
| 2026-04-26 13:23 | 46.17506 | 14.14546 | 36101 ft | 425 kts | 233° |
| 2026-04-26 13:23 | 46.13720 | 14.07992 | 36107 ft | 425 kts | 232° |
| 2026-04-26 13:24 | 46.09923 | 14.01446 | 36101 ft | 425 kts | 232° |
| 2026-04-26 13:24 | 46.06159 | 13.94951 | 36109 ft | 425 kts | 232° |
| 2026-04-26 13:25 | 46.02363 | 13.88416 | 36118 ft | 425 kts | 232° |
| 2026-04-26 13:25 | 45.98566 | 13.81909 | 36122 ft | 425 kts | 232° |
| 2026-04-26 13:26 | 45.94758 | 13.75411 | 36127 ft | 425 kts | 232° |
| 2026-04-26 13:26 | 45.90953 | 13.68919 | 36126 ft | 425 kts | 232° |
| 2026-04-26 13:27 | 45.87123 | 13.62396 | 36126 ft | 425 kts | 232° |
| 2026-04-26 13:27 | 45.83692 | 13.55619 | 36126 ft | 422 kts | 241° |
| 2026-04-26 13:28 | 45.80682 | 13.48402 | 36123 ft | 422 kts | 241° |
| 2026-04-26 13:28 | 45.77666 | 13.41195 | 36115 ft | 421 kts | 241° |
| 2026-04-26 13:29 | 45.75136 | 13.35175 | 36123 ft | 421 kts | 240° |
| 2026-04-26 13:29 | 45.72115 | 13.27997 | 36122 ft | 421 kts | 240° |
| 2026-04-26 13:30 | 45.69077 | 13.20833 | 36122 ft | 421 kts | 240° |
| 2026-04-26 13:30 | 45.66047 | 13.13679 | 36111 ft | 421 kts | 240° |
| 2026-04-26 13:31 | 45.63007 | 13.06538 | 36118 ft | 420 kts | 240° |
| 2026-04-26 13:31 | 45.59963 | 12.99399 | 36110 ft | 420 kts | 240° |
| 2026-04-26 13:32 | 45.56916 | 12.92270 | 36111 ft | 420 kts | 240° |
| 2026-04-26 13:32 | 45.53868 | 12.85150 | 36119 ft | 420 kts | 240° |
| 2026-04-26 13:33 | 45.50822 | 12.78029 | 36123 ft | 420 kts | 240° |
| 2026-04-26 13:33 | 45.47766 | 12.70917 | 36117 ft | 421 kts | 240° |
| 2026-04-26 13:34 | 45.44696 | 12.63814 | 36113 ft | 421 kts | 240° |
| 2026-04-26 13:34 | 45.41628 | 12.56715 | 36112 ft | 421 kts | 240° |
| 2026-04-26 13:35 | 45.38554 | 12.49623 | 36117 ft | 421 kts | 240° |
| 2026-04-26 13:35 | 45.35489 | 12.42582 | 36110 ft | 421 kts | 240° |
| 2026-04-26 13:36 | 45.32401 | 12.35507 | 36127 ft | 421 kts | 239° |
| 2026-04-26 13:36 | 45.29308 | 12.28436 | 36117 ft | 421 kts | 239° |
| 2026-04-26 13:37 | 45.26217 | 12.21372 | 36113 ft | 421 kts | 239° |
| 2026-04-26 13:37 | 45.23119 | 12.14312 | 36112 ft | 421 kts | 239° |
| 2026-04-26 13:38 | 45.20018 | 12.07264 | 36116 ft | 421 kts | 239° |
| 2026-04-26 13:38 | 45.16891 | 12.00165 | 36115 ft | 422 kts | 239° |
| 2026-04-26 13:39 | 45.13773 | 11.93130 | 36105 ft | 422 kts | 239° |
| 2026-04-26 13:39 | 45.10648 | 11.86094 | 36104 ft | 422 kts | 239° |
| 2026-04-26 13:40 | 45.07524 | 11.79058 | 36106 ft | 422 kts | 239° |
| 2026-04-26 13:40 | 45.04390 | 11.72034 | 36103 ft | 422 kts | 239° |
| 2026-04-26 13:41 | 45.01251 | 11.65016 | 36106 ft | 422 kts | 239° |
| 2026-04-26 13:41 | 44.98138 | 11.58044 | 36096 ft | 422 kts | 239° |
| 2026-04-26 13:42 | 44.94977 | 11.50996 | 36107 ft | 422 kts | 239° |
| 2026-04-26 13:42 | 44.91847 | 11.44052 | 36104 ft | 422 kts | 239° |
| 2026-04-26 13:43 | 44.88664 | 11.37016 | 36103 ft | 422 kts | 239° |
| 2026-04-26 13:43 | 44.85529 | 11.30080 | 36102 ft | 422 kts | 239° |
| 2026-04-26 13:44 | 44.82372 | 11.23104 | 36095 ft | 423 kts | 239° |
| 2026-04-26 13:44 | 44.79183 | 11.16084 | 36100 ft | 423 kts | 239° |
| 2026-04-26 13:45 | 44.76010 | 11.09115 | 36103 ft | 423 kts | 239° |
| 2026-04-26 13:45 | 44.72827 | 11.02159 | 36106 ft | 423 kts | 239° |
| 2026-04-26 13:46 | 44.69648 | 10.95216 | 36105 ft | 423 kts | 239° |
| 2026-04-26 13:46 | 44.66461 | 10.88263 | 36100 ft | 423 kts | 239° |
| 2026-04-26 13:47 | 44.63269 | 10.81326 | 36107 ft | 423 kts | 239° |
| 2026-04-26 13:47 | 44.60074 | 10.74391 | 36116 ft | 423 kts | 239° |
| 2026-04-26 13:48 | 44.56874 | 10.67457 | 36122 ft | 423 kts | 238° |
| 2026-04-26 13:48 | 44.53662 | 10.60538 | 36120 ft | 423 kts | 238° |
| 2026-04-26 13:49 | 44.50450 | 10.53627 | 36123 ft | 423 kts | 238° |
| 2026-04-26 13:49 | 44.47236 | 10.46735 | 36126 ft | 423 kts | 238° |
| 2026-04-26 13:50 | 44.44013 | 10.39839 | 36129 ft | 423 kts | 238° |
| 2026-04-26 13:50 | 44.40804 | 10.32970 | 36129 ft | 423 kts | 238° |
| 2026-04-26 13:51 | 44.37582 | 10.26095 | 36146 ft | 423 kts | 238° |
| 2026-04-26 13:51 | 44.34352 | 10.19233 | 36139 ft | 422 kts | 238° |
| 2026-04-26 13:52 | 44.31122 | 10.12377 | 36151 ft | 422 kts | 238° |
| 2026-04-26 13:52 | 44.27893 | 10.05531 | 36169 ft | 422 kts | 238° |
| 2026-04-26 13:53 | 44.24659 | 9.98701 | 36177 ft | 422 kts | 238° |
| 2026-04-26 13:53 | 44.21418 | 9.91879 | 36181 ft | 422 kts | 238° |
| 2026-04-26 13:54 | 44.18172 | 9.85042 | 36170 ft | 422 kts | 238° |
| 2026-04-26 13:54 | 44.14925 | 9.78231 | 36177 ft | 422 kts | 238° |
| 2026-04-26 13:55 | 44.10588 | 9.69175 | 36179 ft | 422 kts | 238° |
| 2026-04-26 13:56 | 44.05155 | 9.57839 | 36181 ft | 422 kts | 238° |
| 2026-04-26 13:56 | 44.01890 | 9.51055 | 36181 ft | 422 kts | 238° |
| 2026-04-26 13:57 | 43.98615 | 9.44275 | 36178 ft | 423 kts | 238° |
| 2026-04-26 13:57 | 43.95336 | 9.37499 | 36179 ft | 423 kts | 238° |
| 2026-04-26 13:58 | 43.92058 | 9.30726 | 36181 ft | 423 kts | 238° |
| 2026-04-26 13:58 | 43.88769 | 9.23949 | 36183 ft | 423 kts | 238° |
| 2026-04-26 13:59 | 43.85472 | 9.17189 | 36180 ft | 423 kts | 238° |
| 2026-04-26 13:59 | 43.82167 | 9.10413 | 36181 ft | 424 kts | 238° |
| 2026-04-26 14:00 | 43.75633 | 8.97069 | 36191 ft | 423 kts | 238° |
| 2026-04-26 14:01 | 43.72304 | 8.90295 | 36192 ft | 423 kts | 238° |
| 2026-04-26 14:01 | 43.69012 | 8.83623 | 36190 ft | 423 kts | 238° |
| 2026-04-26 14:02 | 43.65461 | 8.77076 | 36181 ft | 425 kts | 226° |
| 2026-04-26 14:02 | 43.63166 | 8.74489 | 36183 ft | 429 kts | 215° |
| 2026-04-26 14:02 | 43.60512 | 8.72583 | 36181 ft | 432 kts | 203° |
| 2026-04-26 14:02 | 43.57609 | 8.71471 | 36178 ft | 436 kts | 191° |
| 2026-04-26 14:03 | 43.54573 | 8.71197 | 36177 ft | 439 kts | 182° |
| 2026-04-26 14:03 | 43.51579 | 8.70892 | 36166 ft | 434 kts | 198° |
| 2026-04-26 14:03 | 43.48858 | 8.69268 | 36160 ft | 425 kts | 216° |
| 2026-04-26 14:04 | 43.43807 | 8.65019 | 36153 ft | 427 kts | 212° |
| 2026-04-26 14:04 | 43.39435 | 8.61684 | 36157 ft | 429 kts | 212° |
| 2026-04-26 14:05 | 43.34628 | 8.56934 | 36156 ft | 425 kts | 224° |
| 2026-04-26 14:05 | 43.30299 | 8.51394 | 36150 ft | 425 kts | 226° |
| 2026-04-26 14:06 | 43.26049 | 8.45733 | 36159 ft | 426 kts | 226° |
| 2026-04-26 14:06 | 43.21717 | 8.40171 | 36169 ft | 427 kts | 225° |
| 2026-04-26 14:07 | 43.17320 | 8.34696 | 36174 ft | 427 kts | 224° |
| 2026-04-26 14:07 | 43.12918 | 8.29230 | 36171 ft | 427 kts | 224° |
| 2026-04-26 14:08 | 43.08530 | 8.23745 | 36179 ft | 427 kts | 225° |
| 2026-04-26 14:08 | 43.04173 | 8.18300 | 36180 ft | 427 kts | 224° |
| 2026-04-26 14:09 | 42.99781 | 8.12832 | 36185 ft | 427 kts | 224° |
| 2026-04-26 14:09 | 42.95413 | 8.07397 | 36186 ft | 427 kts | 224° |
| 2026-04-26 14:10 | 42.91013 | 8.01954 | 36184 ft | 427 kts | 224° |
| 2026-04-26 14:10 | 42.86610 | 7.96509 | 36186 ft | 427 kts | 224° |
| 2026-04-26 14:11 | 42.80015 | 7.88370 | 36180 ft | 426 kts | 224° |
| 2026-04-26 14:11 | 42.75619 | 7.82957 | 36186 ft | 426 kts | 224° |
| 2026-04-26 14:12 | 42.71222 | 7.77545 | 36181 ft | 426 kts | 224° |
| 2026-04-26 14:12 | 42.66820 | 7.72144 | 36183 ft | 426 kts | 224° |
| 2026-04-26 14:13 | 42.60249 | 7.64109 | 36179 ft | 425 kts | 224° |
| 2026-04-26 14:14 | 42.55813 | 7.58695 | 36183 ft | 425 kts | 224° |
| 2026-04-26 14:14 | 42.51412 | 7.53335 | 36180 ft | 425 kts | 224° |
| 2026-04-26 14:15 | 42.47037 | 7.48022 | 36179 ft | 425 kts | 224° |
| 2026-04-26 14:15 | 42.42635 | 7.42682 | 36175 ft | 425 kts | 224° |
| 2026-04-26 14:16 | 42.38235 | 7.37341 | 36177 ft | 425 kts | 224° |
| 2026-04-26 14:16 | 42.33828 | 7.32016 | 36167 ft | 425 kts | 224° |
| 2026-04-26 14:17 | 42.29410 | 7.26691 | 36173 ft | 425 kts | 223° |
| 2026-04-26 14:17 | 42.24991 | 7.21383 | 36174 ft | 425 kts | 223° |
| 2026-04-26 14:18 | 42.20571 | 7.16071 | 36171 ft | 425 kts | 223° |
| 2026-04-26 14:18 | 42.16178 | 7.10799 | 36168 ft | 425 kts | 223° |
| 2026-04-26 14:19 | 42.11751 | 7.05507 | 36169 ft | 425 kts | 223° |
| 2026-04-26 14:19 | 42.07324 | 7.00216 | 36172 ft | 425 kts | 223° |
| 2026-04-26 14:20 | 42.02896 | 6.94940 | 36172 ft | 425 kts | 223° |
| 2026-04-26 14:20 | 41.98467 | 6.89664 | 36165 ft | 425 kts | 223° |
| 2026-04-26 14:21 | 41.94031 | 6.84389 | 36161 ft | 426 kts | 223° |
| 2026-04-26 14:21 | 41.89593 | 6.79135 | 36166 ft | 425 kts | 223° |
| 2026-04-26 14:22 | 41.85152 | 6.73887 | 36167 ft | 425 kts | 223° |
| 2026-04-26 14:22 | 41.80706 | 6.68642 | 36165 ft | 425 kts | 223° |
| 2026-04-26 14:23 | 41.76265 | 6.63416 | 36156 ft | 425 kts | 223° |
| 2026-04-26 14:23 | 41.71822 | 6.58183 | 36157 ft | 426 kts | 223° |
| 2026-04-26 14:24 | 41.67358 | 6.52946 | 36157 ft | 426 kts | 223° |
| 2026-04-26 14:24 | 41.62890 | 6.47726 | 36160 ft | 426 kts | 223° |
| 2026-04-26 14:25 | 41.58464 | 6.42543 | 36164 ft | 426 kts | 223° |
| 2026-04-26 14:25 | 41.54004 | 6.37330 | 36163 ft | 426 kts | 223° |
| 2026-04-26 14:26 | 41.49531 | 6.32120 | 36166 ft | 426 kts | 223° |
| 2026-04-26 14:26 | 41.45054 | 6.26914 | 36167 ft | 426 kts | 222° |
| 2026-04-26 14:27 | 41.40578 | 6.21727 | 36169 ft | 426 kts | 222° |
| 2026-04-26 14:27 | 41.36105 | 6.16545 | 36163 ft | 426 kts | 222° |
| 2026-04-26 14:28 | 41.31626 | 6.11367 | 36168 ft | 426 kts | 222° |
| 2026-04-26 14:28 | 41.27176 | 6.06230 | 36171 ft | 426 kts | 222° |
| 2026-04-26 14:29 | 41.22690 | 6.01071 | 36171 ft | 426 kts | 222° |
| 2026-04-26 14:29 | 41.18206 | 5.95916 | 36172 ft | 426 kts | 222° |
| 2026-04-26 14:30 | 41.13721 | 5.90763 | 36162 ft | 426 kts | 222° |
| 2026-04-26 14:30 | 41.09236 | 5.85623 | 36186 ft | 426 kts | 222° |
| 2026-04-26 14:31 | 41.04745 | 5.80483 | 36186 ft | 426 kts | 222° |
| 2026-04-26 14:31 | 41.00250 | 5.75361 | 36175 ft | 426 kts | 222° |
| 2026-04-26 14:32 | 40.95760 | 5.70230 | 36165 ft | 426 kts | 225° |
| 2026-04-26 14:32 | 40.92065 | 5.64153 | 36170 ft | 424 kts | 236° |
| 2026-04-26 14:33 | 40.88663 | 5.57766 | 36168 ft | 425 kts | 235° |
| 2026-04-26 14:33 | 40.85240 | 5.51397 | 36173 ft | 425 kts | 235° |
| 2026-04-26 14:34 | 40.81815 | 5.45024 | 36181 ft | 425 kts | 235° |
| 2026-04-26 14:34 | 40.78383 | 5.38653 | 36188 ft | 425 kts | 235° |
| 2026-04-26 14:35 | 40.74947 | 5.32286 | 36172 ft | 426 kts | 235° |
| 2026-04-26 14:35 | 40.71502 | 5.25920 | 36170 ft | 426 kts | 235° |
| 2026-04-26 14:36 | 40.68052 | 5.19561 | 36172 ft | 427 kts | 235° |
| 2026-04-26 14:36 | 40.64599 | 5.13197 | 36179 ft | 427 kts | 235° |
| 2026-04-26 14:37 | 40.61135 | 5.06842 | 36182 ft | 427 kts | 235° |
| 2026-04-26 14:37 | 40.57665 | 5.00480 | 35345 ft | 434 kts | 235° |
| 2026-04-26 14:37 | 40.55889 | 4.97224 | 34491 ft | 440 kts | 234° |
| 2026-04-26 14:38 | 40.54125 | 4.93991 | 33839 ft | 440 kts | 234° |
| 2026-04-26 14:38 | 40.52338 | 4.90719 | 33156 ft | 440 kts | 234° |
| 2026-04-26 14:38 | 40.50563 | 4.87476 | 32693 ft | 435 kts | 234° |
| 2026-04-26 14:38 | 40.49398 | 4.85352 | 32370 ft | 432 kts | 234° |
| 2026-04-26 14:39 | 40.47060 | 4.81094 | 31744 ft | 427 kts | 234° |
| 2026-04-26 14:39 | 40.45332 | 4.77954 | 31286 ft | 423 kts | 234° |
| 2026-04-26 14:39 | 40.43614 | 4.74835 | 30832 ft | 419 kts | 234° |
| 2026-04-26 14:39 | 40.41911 | 4.71748 | 30370 ft | 416 kts | 235° |
| 2026-04-26 14:40 | 40.40220 | 4.68681 | 29881 ft | 413 kts | 235° |
| 2026-04-26 14:40 | 40.38548 | 4.65648 | 29457 ft | 408 kts | 234° |
| 2026-04-26 14:40 | 40.36902 | 4.62644 | 29042 ft | 404 kts | 234° |
| 2026-04-26 14:40 | 40.35278 | 4.59652 | 28635 ft | 400 kts | 234° |
| 2026-04-26 14:41 | 40.33662 | 4.56694 | 28228 ft | 397 kts | 234° |
| 2026-04-26 14:41 | 40.32587 | 4.54758 | 27966 ft | 395 kts | 233° |
| 2026-04-26 14:41 | 40.30970 | 4.51867 | 27563 ft | 392 kts | 233° |
| 2026-04-26 14:41 | 40.29357 | 4.48991 | 27226 ft | 389 kts | 233° |
| 2026-04-26 14:42 | 40.27772 | 4.46160 | 27150 ft | 381 kts | 233° |
| 2026-04-26 14:42 | 40.26205 | 4.43355 | 27168 ft | 382 kts | 233° |
| 2026-04-26 14:42 | 40.24637 | 4.40546 | 27169 ft | 381 kts | 233° |
| 2026-04-26 14:42 | 40.23075 | 4.37742 | 26758 ft | 384 kts | 233° |
| 2026-04-26 14:43 | 40.21474 | 4.34868 | 25951 ft | 394 kts | 233° |
| 2026-04-26 14:43 | 40.19855 | 4.31962 | 25437 ft | 396 kts | 233° |
| 2026-04-26 14:43 | 40.18237 | 4.29057 | 25006 ft | 393 kts | 233° |
| 2026-04-26 14:43 | 40.16637 | 4.26187 | 24299 ft | 389 kts | 233° |
| 2026-04-26 14:44 | 40.15051 | 4.23345 | 23561 ft | 385 kts | 233° |
| 2026-04-26 14:44 | 40.13474 | 4.20524 | 22733 ft | 381 kts | 233° |
| 2026-04-26 14:44 | 40.11915 | 4.17742 | 21921 ft | 377 kts | 233° |
| 2026-04-26 14:44 | 40.10370 | 4.14987 | 21121 ft | 374 kts | 233° |
| 2026-04-26 14:45 | 40.08843 | 4.12264 | 20331 ft | 370 kts | 233° |
| 2026-04-26 14:45 | 40.07838 | 4.10475 | 19823 ft | 367 kts | 233° |
| 2026-04-26 14:45 | 40.05827 | 4.06899 | 18826 ft | 363 kts | 233° |
| 2026-04-26 14:45 | 40.04340 | 4.04256 | 18052 ft | 360 kts | 233° |
| 2026-04-26 14:46 | 40.02862 | 4.01636 | 17254 ft | 356 kts | 233° |
| 2026-04-26 14:46 | 40.01404 | 3.99049 | 16454 ft | 353 kts | 233° |
| 2026-04-26 14:46 | 39.99956 | 3.96481 | 15687 ft | 349 kts | 233° |
| 2026-04-26 14:46 | 39.98554 | 3.93999 | 15283 ft | 336 kts | 233° |
| 2026-04-26 14:47 | 39.97177 | 3.91565 | 14469 ft | 337 kts | 233° |
| 2026-04-26 14:47 | 39.95781 | 3.89095 | 13603 ft | 339 kts | 233° |
| 2026-04-26 14:47 | 39.94392 | 3.86635 | 12874 ft | 336 kts | 233° |
| 2026-04-26 14:47 | 39.93012 | 3.84196 | 12522 ft | 332 kts | 233° |
| 2026-04-26 14:48 | 39.91653 | 3.81802 | 12317 ft | 323 kts | 233° |
| 2026-04-26 14:48 | 39.90330 | 3.79476 | 12082 ft | 317 kts | 232° |
| 2026-04-26 14:48 | 39.89029 | 3.77187 | 11798 ft | 312 kts | 233° |
| 2026-04-26 14:48 | 39.87743 | 3.74926 | 11509 ft | 308 kts | 232° |
| 2026-04-26 14:49 | 39.86474 | 3.72695 | 11239 ft | 305 kts | 232° |
| 2026-04-26 14:49 | 39.85218 | 3.70486 | 11146 ft | 303 kts | 233° |
| 2026-04-26 14:49 | 39.83961 | 3.68279 | 11161 ft | 304 kts | 232° |
| 2026-04-26 14:49 | 39.82704 | 3.66070 | 11157 ft | 304 kts | 232° |
| 2026-04-26 14:50 | 39.81441 | 3.63853 | 11159 ft | 305 kts | 232° |
| 2026-04-26 14:50 | 39.80176 | 3.61644 | 11158 ft | 305 kts | 232° |
| 2026-04-26 14:50 | 39.78916 | 3.59451 | 10929 ft | 302 kts | 232° |
| 2026-04-26 14:50 | 39.77661 | 3.57272 | 10594 ft | 300 kts | 233° |
| 2026-04-26 14:51 | 39.76418 | 3.55111 | 10327 ft | 296 kts | 232° |
| 2026-04-26 14:51 | 39.75189 | 3.52973 | 10025 ft | 294 kts | 232° |
| 2026-04-26 14:51 | 39.73972 | 3.50846 | 9673 ft | 292 kts | 232° |
| 2026-04-26 14:51 | 39.72767 | 3.48729 | 9324 ft | 291 kts | 232° |
| 2026-04-26 14:52 | 39.71563 | 3.46618 | 8981 ft | 291 kts | 232° |
| 2026-04-26 14:52 | 39.70361 | 3.44505 | 8649 ft | 290 kts | 232° |
| 2026-04-26 14:52 | 39.69164 | 3.42404 | 8309 ft | 289 kts | 232° |
| 2026-04-26 14:52 | 39.67968 | 3.40312 | 7981 ft | 288 kts | 232° |
| 2026-04-26 14:53 | 39.66773 | 3.38227 | 7677 ft | 287 kts | 233° |
| 2026-04-26 14:53 | 39.65880 | 3.35933 | 7376 ft | 286 kts | 257° |
| 2026-04-26 14:53 | 39.65828 | 3.33375 | 7064 ft | 285 kts | 278° |
| 2026-04-26 14:53 | 39.66180 | 3.30870 | 6888 ft | 278 kts | 282° |
| 2026-04-26 14:54 | 39.66564 | 3.28445 | 6768 ft | 271 kts | 282° |
| 2026-04-26 14:54 | 39.66941 | 3.26079 | 6644 ft | 263 kts | 282° |
| 2026-04-26 14:54 | 39.67310 | 3.23780 | 6522 ft | 256 kts | 282° |
| 2026-04-26 14:54 | 39.67665 | 3.21551 | 6398 ft | 248 kts | 282° |
| 2026-04-26 14:55 | 39.68009 | 3.19389 | 6212 ft | 242 kts | 282° |
| 2026-04-26 14:55 | 39.68348 | 3.17266 | 5952 ft | 239 kts | 282° |
| 2026-04-26 14:55 | 39.68687 | 3.15148 | 5676 ft | 239 kts | 282° |
| 2026-04-26 14:55 | 39.69022 | 3.13041 | 5383 ft | 238 kts | 282° |
| 2026-04-26 14:56 | 39.69360 | 3.10948 | 5116 ft | 236 kts | 282° |
| 2026-04-26 14:56 | 39.69697 | 3.08868 | 5017 ft | 235 kts | 282° |
| 2026-04-26 14:56 | 39.69976 | 3.06769 | 5022 ft | 237 kts | 270° |
| 2026-04-26 14:56 | 39.69594 | 3.04738 | 4974 ft | 234 kts | 233° |
| 2026-04-26 14:57 | 39.68435 | 3.03294 | 4746 ft | 233 kts | 218° |
| 2026-04-26 14:57 | 39.67419 | 3.01673 | 4463 ft | 233 kts | 240° |
| 2026-04-26 14:57 | 39.66644 | 2.99841 | 4155 ft | 234 kts | 239° |
| 2026-04-26 14:57 | 39.65811 | 2.97996 | 3840 ft | 235 kts | 238° |
| 2026-04-26 14:58 | 39.64960 | 2.96179 | 3529 ft | 236 kts | 238° |
| 2026-04-26 14:58 | 39.64106 | 2.94361 | 3213 ft | 236 kts | 238° |
| 2026-04-26 14:58 | 39.63254 | 2.92548 | 2905 ft | 236 kts | 238° |
| 2026-04-26 14:58 | 39.62398 | 2.90724 | 2588 ft | 236 kts | 238° |
| 2026-04-26 14:59 | 39.61540 | 2.88901 | 2272 ft | 238 kts | 237° |
| 2026-04-26 14:59 | 39.60678 | 2.87070 | 1957 ft | 237 kts | 238° |
| 2026-04-26 14:59 | 39.59835 | 2.85276 | 1649 ft | 227 kts | 237° |
| 2026-04-26 14:59 | 39.59312 | 2.84164 | 1477 ft | 209 kts | 237° |
| 2026-04-26 15:00 | 39.58368 | 2.82159 | 1108 ft | 181 kts | 236° |
| 2026-04-26 15:00 | 39.57745 | 2.80842 | 906 ft | 160 kts | 237° |
| 2026-04-26 15:00 | 39.57189 | 2.79673 | 684 ft | 145 kts | 237° |
| 2026-04-26 15:00 | 39.56657 | 2.78582 | 479 ft | 138 kts | 237° |
| 2026-04-26 15:01 | 39.56175 | 2.77518 | 317 ft | 134 kts | 239° |
| 2026-04-26 15:01 | 39.55696 | 2.76491 | 108 ft | 132 kts | 240° |
| 2026-04-26 15:01 | 39.55534 | 2.76144 | 66 ft | 132 kts | 242° |